createdAt,value
2018-09-18T05:11:42.062Z,4.77
2018-09-18T05:14:10.824Z,7.60
2018-09-18T05:16:40.175Z,5.37
2018-09-18T05:19:08.883Z,5.20
2018-09-18T05:21:37.579Z,6.07
2018-09-18T05:24:06.370Z,7.27
2018-09-18T05:26:35.076Z,3.67
2018-09-18T05:29:04.095Z,8.30
2018-09-18T05:31:32.794Z,3.90
2018-09-18T05:34:01.517Z,3.87
2018-09-18T05:36:30.395Z,4.43
2018-09-18T05:38:59.826Z,9.17
2018-09-18T05:41:29.270Z,6.33
2018-09-18T05:43:59.058Z,3.23
2018-09-18T05:46:27.843Z,6.33
2018-09-18T05:48:56.580Z,5.17
2018-09-18T05:51:25.394Z,7.27
2018-09-18T05:53:54.844Z,10.07
2018-09-18T05:56:24.215Z,5.87
2018-09-18T05:58:54.037Z,5.00
2018-09-18T06:01:23.698Z,8.17
2018-09-18T06:03:52.394Z,4.77
2018-09-18T06:06:21.096Z,8.37
2018-09-18T06:08:49.831Z,3.67
2018-09-18T06:11:18.577Z,3.27
2018-09-18T06:13:48.225Z,4.93
2018-09-18T06:16:16.947Z,4.07
2018-09-18T06:18:46.252Z,5.63
2018-09-18T06:21:15.139Z,3.27
2018-09-18T06:23:45.454Z,3.67
2018-09-18T06:26:14.550Z,5.33
2018-09-18T06:28:43.495Z,6.60
2018-09-18T06:31:12.727Z,4.67
2018-09-18T06:33:41.418Z,5.30
2018-09-18T06:36:10.495Z,5.50
2018-09-18T06:38:40.484Z,4.03
2018-09-18T06:41:09.735Z,4.10
2018-09-18T06:43:38.995Z,4.50
2018-09-18T06:46:07.811Z,4.90
2018-09-18T06:48:37.903Z,6.10
2018-09-18T06:51:07.040Z,3.70
2018-09-18T06:53:35.807Z,3.43
2018-09-18T06:56:05.537Z,3.87
2018-09-18T06:58:34.379Z,3.97
2018-09-18T07:01:03.076Z,3.47
2018-09-18T07:03:31.773Z,4.00
2018-09-18T07:06:00.502Z,3.63
2018-09-18T07:08:30.360Z,7.47
2018-09-18T07:10:59.067Z,4.53
2018-09-18T07:13:27.797Z,5.70
2018-09-18T07:15:57.491Z,4.67
2018-09-18T07:18:26.504Z,4.87
2018-09-18T07:20:55.298Z,3.60
2018-09-18T07:23:27.191Z,3.33
2018-09-18T07:25:56.368Z,6.60
2018-09-18T07:28:27.854Z,5.07
2018-09-18T07:30:56.533Z,4.83
2018-09-18T07:33:25.225Z,5.40
2018-09-18T07:35:53.930Z,6.03
2018-09-18T07:38:24.919Z,5.53
2018-09-18T07:40:53.639Z,8.00
2018-09-18T07:43:22.636Z,4.27
2018-09-18T07:45:51.703Z,4.30
2018-09-18T07:48:21.672Z,3.57
2018-09-18T07:50:50.423Z,5.20
2018-09-18T07:53:19.614Z,4.50
2018-09-18T07:55:51.935Z,8.60
2018-09-18T07:58:21.263Z,8.93
2018-09-18T08:00:50.171Z,14.43
2018-09-18T08:03:19.274Z,11.33
2018-09-18T08:05:48.670Z,16.87
2018-09-18T08:08:18.176Z,7.80
2018-09-18T08:10:48.298Z,7.00
2018-09-18T08:13:18.004Z,11.50
2018-09-18T08:15:47.104Z,8.30
2018-09-18T08:18:15.780Z,9.57
2018-09-18T08:20:45.081Z,6.67
2018-09-18T08:23:14.567Z,7.60
2018-09-18T08:25:44.805Z,10.27
2018-09-18T08:28:13.751Z,8.67
2018-09-18T08:30:42.467Z,11.10
2018-09-18T08:33:12.033Z,6.87
2018-09-18T08:35:40.740Z,13.37
2018-09-18T08:38:09.608Z,7.73
2018-09-18T08:40:39.244Z,7.33
2018-09-18T08:43:08.686Z,11.07
2018-09-18T08:45:37.514Z,9.50
2018-09-18T08:48:06.628Z,6.10
2018-09-18T08:50:36.601Z,10.00
2018-09-18T08:53:05.642Z,6.73
2018-09-18T08:55:35.078Z,10.33
2018-09-18T08:58:04.804Z,9.10
2018-09-18T09:00:35.140Z,6.40
2018-09-18T09:03:04.349Z,8.33
2018-09-18T09:05:33.839Z,6.77
2018-09-18T09:08:02.865Z,8.27
2018-09-18T09:10:32.791Z,9.67
2018-09-18T09:13:03.019Z,7.43
2018-09-18T09:15:32.475Z,7.60
2018-09-18T09:18:01.406Z,7.77
2018-09-18T09:20:30.714Z,6.17
2018-09-18T09:23:00.396Z,7.73
2018-09-18T09:25:31.117Z,8.30
2018-09-18T09:28:00.582Z,8.27
2018-09-18T09:30:29.671Z,8.03
2018-09-18T09:33:00.106Z,9.73
2018-09-18T09:35:29.153Z,5.77
2018-09-18T09:37:58.332Z,10.07
2018-09-18T09:40:28.289Z,12.50
2018-09-18T09:42:57.175Z,7.20
2018-09-18T09:45:27.033Z,15.17
2018-09-18T09:47:56.121Z,8.23
2018-09-18T09:50:24.882Z,7.63
2018-09-18T09:52:54.287Z,8.43
2018-09-18T09:55:23.084Z,10.37
2018-09-18T09:57:52.250Z,8.47
2018-09-18T10:00:26.655Z,10.73
2018-09-18T10:02:56.125Z,7.93
2018-09-18T10:05:25.693Z,6.07
2018-09-18T10:07:55.288Z,11.70
2018-09-18T10:10:23.926Z,12.33
2018-09-18T10:12:53.063Z,10.93
2018-09-18T10:15:22.711Z,13.67
2018-09-18T10:17:51.649Z,11.00
2018-09-18T10:20:21.952Z,10.90
2018-09-18T10:22:50.712Z,9.13
2018-09-18T10:25:19.843Z,9.70
2018-09-18T10:27:48.974Z,10.60
2018-09-18T10:30:18.925Z,13.07
2018-09-18T10:32:48.091Z,10.07
2018-09-18T10:35:17.651Z,11.00
2018-09-18T10:37:47.133Z,8.27
2018-09-18T10:40:16.664Z,9.27
2018-09-18T10:42:46.444Z,11.33
2018-09-18T10:45:15.648Z,10.13
2018-09-18T10:47:45.290Z,10.73
2018-09-18T10:50:14.352Z,11.13
2018-09-18T10:52:44.091Z,8.97
2018-09-18T10:55:14.030Z,8.97
2018-09-18T10:57:43.723Z,9.87
2018-09-18T11:00:13.320Z,10.40
2018-09-18T11:02:42.062Z,6.67
2018-09-18T11:05:11.453Z,10.40
2018-09-18T11:07:40.370Z,12.17
2018-09-18T11:10:09.635Z,9.67
2018-09-18T11:12:38.682Z,9.10
2018-09-18T11:15:07.790Z,7.13
2018-09-18T11:17:36.952Z,9.07
2018-09-18T11:20:06.332Z,7.57
2018-09-18T11:22:36.237Z,8.03
2018-09-18T11:25:05.461Z,10.37
2018-09-18T11:27:34.619Z,7.17
2018-09-18T11:30:06.261Z,7.80
2018-09-18T11:32:35.917Z,8.97
2018-09-18T11:35:05.160Z,8.80
2018-09-18T11:37:34.255Z,10.30
2018-09-18T11:40:03.196Z,8.73
2018-09-18T11:42:32.940Z,7.93
2018-09-18T11:45:02.057Z,11.13
2018-09-18T11:47:30.817Z,9.37
2018-09-18T11:49:59.576Z,4.83
2018-09-18T11:52:28.328Z,10.03
2018-09-18T11:54:57.184Z,12.97
2018-09-18T11:57:26.291Z,14.97
2018-09-18T11:59:55.188Z,17.13
2018-09-18T12:02:24.427Z,17.67
2018-09-18T12:04:53.763Z,16.47
2018-09-18T12:07:22.966Z,15.93
2018-09-18T12:09:52.277Z,17.70
2018-09-18T12:12:21.983Z,24.40
2018-09-18T12:14:51.151Z,26.57
2018-09-18T12:17:20.088Z,32.33
2018-09-18T12:19:48.913Z,23.17
2018-09-18T12:22:18.525Z,9.17
2018-09-18T12:24:47.557Z,19.87
2018-09-18T12:27:16.972Z,25.23
2018-09-18T12:29:45.942Z,18.77
2018-09-18T12:32:16.412Z,34.10
2018-09-18T12:34:45.710Z,31.30
2018-09-18T12:37:14.922Z,23.53
2018-09-18T12:39:44.953Z,12.63
2018-09-18T12:42:16.336Z,37.90
2018-09-18T12:44:45.260Z,42.13
2018-09-18T12:47:14.736Z,33.03
2018-09-18T12:49:44.223Z,43.63
2018-09-18T12:52:13.843Z,57.80
2018-09-18T12:54:42.953Z,32.47
2018-09-18T12:57:12.437Z,48.50
2018-09-18T12:59:41.484Z,23.13
2018-09-18T13:02:10.590Z,58.03
2018-09-18T13:04:40.283Z,27.27
2018-09-18T13:07:09.144Z,38.70
2018-09-18T13:09:39.023Z,33.73
2018-09-18T13:12:07.958Z,21.37
2018-09-18T13:14:37.632Z,53.23
2018-09-18T13:17:07.708Z,34.20
2018-09-18T13:19:39.200Z,36.37
2018-09-18T13:22:08.897Z,32.90
2018-09-18T13:24:38.823Z,38.77
2018-09-18T13:27:08.161Z,35.97
2018-09-18T13:29:37.546Z,27.63
2018-09-18T13:32:07.337Z,40.37
2018-09-18T13:34:36.911Z,27.53
2018-09-18T13:37:05.960Z,32.67
2018-09-18T13:39:35.555Z,17.63
2018-09-18T13:42:04.536Z,20.23
2018-09-18T13:44:34.046Z,27.07
2018-09-18T13:47:03.912Z,27.93
2018-09-18T13:49:32.756Z,25.47
2018-09-18T13:52:02.380Z,24.00
2018-09-18T13:54:32.310Z,26.67
2018-09-18T13:57:01.559Z,25.27
2018-09-18T13:59:30.868Z,24.33
2018-09-18T14:01:59.695Z,20.17
2018-09-18T14:04:28.987Z,17.57
2018-09-18T14:06:58.728Z,22.53
2018-09-18T14:09:27.992Z,21.43
2018-09-18T14:14:42.114Z,14.77
2018-09-18T14:17:11.588Z,17.07
2018-09-18T14:19:40.550Z,23.67
2018-09-18T14:22:09.919Z,22.40
2018-09-18T14:24:39.548Z,21.00
2018-09-18T14:27:12.171Z,20.43
2018-09-18T14:29:41.587Z,18.47
2018-09-18T14:32:10.400Z,27.10
2018-09-18T14:34:39.709Z,18.87
2018-09-18T14:37:09.322Z,16.23
2018-09-18T14:39:39.218Z,13.87
2018-09-18T14:42:08.178Z,17.77
2018-09-18T14:44:37.914Z,17.70
2018-09-18T14:47:07.520Z,18.93
2018-09-18T14:49:36.793Z,16.57
2018-09-18T14:52:06.245Z,17.90
2018-09-18T14:54:35.649Z,15.83
2018-09-18T14:57:04.804Z,15.83
2018-09-18T14:59:34.309Z,12.80
2018-09-18T15:02:03.243Z,15.93
2018-09-18T15:04:32.540Z,22.37
2018-09-18T15:07:01.891Z,22.77
2018-09-18T15:09:31.299Z,15.73
2018-09-18T15:12:00.501Z,14.93
2018-09-18T15:14:29.535Z,15.47
2018-09-18T15:16:59.347Z,19.73
2018-09-18T15:19:28.083Z,16.83
2018-09-18T15:21:57.234Z,17.40
2018-09-18T15:24:26.844Z,16.97
2018-09-18T15:26:55.680Z,15.47
2018-09-18T15:29:28.380Z,18.63
2018-09-18T15:31:58.033Z,21.33
2018-09-18T15:34:26.996Z,16.90
2018-09-18T15:36:56.191Z,21.00
2018-09-18T15:39:26.503Z,22.37
2018-09-18T15:41:56.308Z,13.97
2018-09-18T15:44:25.540Z,19.03
2018-09-18T15:46:54.644Z,20.30
2018-09-18T15:49:23.487Z,20.43
2018-09-18T15:51:53.290Z,19.90
2018-09-18T15:54:22.229Z,11.60
2018-09-18T15:56:51.418Z,15.47
2018-09-18T15:59:21.344Z,14.87
2018-09-18T16:01:50.540Z,19.30
2018-09-18T16:04:19.780Z,28.83
2018-09-18T16:06:49.226Z,18.53
2018-09-18T16:09:18.521Z,14.83
2018-09-18T16:11:47.641Z,16.67
2018-09-18T16:14:17.412Z,17.57
2018-09-18T16:16:47.306Z,16.93
2018-09-18T16:19:16.432Z,12.50
2018-09-18T16:21:45.271Z,17.97
2018-09-18T16:24:14.307Z,10.90
2018-09-18T16:26:43.153Z,27.23
2018-09-18T16:29:12.609Z,20.33
2018-09-18T16:31:41.376Z,10.80
2018-09-18T16:34:10.297Z,18.80
2018-09-18T16:36:39.884Z,15.30
2018-09-18T16:39:09.310Z,24.47
2018-09-18T16:41:38.415Z,19.70
2018-09-18T16:44:07.294Z,12.63
2018-09-18T16:46:36.553Z,12.87
2018-09-18T16:49:05.303Z,21.77
2018-09-18T16:51:34.419Z,13.60
2018-09-18T16:54:04.105Z,13.30
2018-09-18T16:56:33.685Z,23.60
2018-09-18T16:59:03.119Z,18.97
2018-09-18T17:01:32.715Z,17.77
2018-09-18T17:04:01.690Z,18.13
2018-09-18T17:06:30.417Z,16.10
2018-09-18T17:09:00.096Z,16.57
2018-09-18T17:11:29.394Z,21.93
2018-09-18T17:13:58.614Z,11.83
2018-09-18T17:16:27.713Z,14.53
2018-09-18T17:18:57.075Z,15.27
2018-09-18T17:21:26.321Z,16.57
2018-09-18T17:23:55.523Z,18.30
2018-09-18T17:26:24.804Z,19.43
2018-09-18T17:28:54.944Z,9.20
2018-09-18T17:31:24.658Z,16.13
2018-09-18T17:33:53.407Z,14.73
2018-09-18T17:36:22.947Z,13.57
2018-09-18T17:38:52.452Z,17.63
2018-09-18T17:41:21.889Z,23.30
2018-09-18T17:43:50.931Z,15.60
2018-09-18T17:46:20.742Z,17.23
2018-09-18T17:48:49.918Z,19.87
2018-09-18T17:51:19.423Z,17.37
2018-09-18T17:53:49.068Z,16.20
2018-09-18T17:56:18.696Z,18.87
2018-09-18T17:58:48.278Z,13.20
2018-09-18T18:01:17.245Z,17.30
2018-09-18T18:03:46.330Z,14.13
2018-09-18T18:06:15.415Z,10.87
2018-09-18T18:08:44.578Z,13.03
2018-09-18T18:11:14.336Z,18.43
2018-09-18T18:13:43.812Z,15.53
2018-09-18T18:16:13.001Z,13.00
2018-09-18T18:18:42.634Z,16.80
2018-09-18T18:21:12.644Z,14.23
2018-09-18T18:23:42.443Z,11.90
2018-09-18T18:26:11.457Z,12.57
2018-09-18T18:28:40.232Z,13.33
2018-09-18T18:31:14.759Z,12.10
2018-09-18T18:33:44.270Z,13.00
2018-09-18T18:36:13.765Z,11.37
2018-09-18T18:38:42.914Z,9.77
2018-09-18T18:41:11.825Z,12.03
2018-09-18T18:43:40.714Z,15.10
2018-09-18T18:46:10.111Z,10.73
2018-09-18T18:48:39.312Z,11.57
2018-09-18T18:51:08.399Z,12.87
2018-09-18T18:53:39.025Z,10.60
2018-09-18T18:56:07.968Z,9.43
2018-09-18T18:58:37.743Z,12.03
2018-09-18T19:01:06.925Z,12.57
2018-09-18T19:03:35.739Z,11.33
2018-09-18T19:06:05.345Z,14.37
2018-09-18T19:08:34.296Z,9.50
2018-09-18T19:11:03.432Z,11.23
2018-09-18T19:13:32.584Z,11.47
2018-09-18T19:16:01.909Z,15.10
2018-09-18T19:18:31.029Z,14.37
2018-09-18T19:21:00.143Z,12.70
2018-09-18T19:23:29.474Z,14.07
2018-09-18T19:25:59.369Z,8.07
2018-09-18T19:28:28.358Z,15.83
2018-09-18T19:30:57.775Z,10.67
2018-09-18T19:33:27.366Z,13.93
2018-09-18T19:35:56.933Z,8.93
2018-09-18T19:38:25.845Z,10.63
2018-09-18T19:40:54.737Z,10.93
2018-09-18T19:43:24.387Z,8.70
2018-09-18T19:45:53.295Z,9.30
2018-09-18T19:48:22.511Z,7.73
2018-09-18T19:50:51.892Z,15.73
2018-09-18T19:53:21.338Z,14.13
2018-09-18T19:55:50.110Z,7.83
2018-09-18T19:58:19.932Z,11.10
2018-09-18T20:00:49.214Z,14.17
2018-09-18T20:03:18.814Z,10.00
2018-09-18T20:05:48.619Z,12.00
2018-09-18T20:08:18.106Z,13.00
2018-09-18T20:10:46.883Z,10.43
2018-09-18T20:13:15.667Z,7.90
2018-09-18T20:15:44.491Z,11.23
2018-09-18T20:18:13.711Z,7.37
2018-09-18T20:20:42.638Z,9.37
2018-09-18T20:23:12.032Z,13.90
2018-09-18T20:25:41.799Z,13.20
2018-09-18T20:28:10.630Z,10.77
2018-09-18T20:30:39.360Z,12.07
2018-09-18T20:33:08.475Z,12.83
2018-09-18T20:35:37.711Z,9.83
2018-09-18T20:38:07.056Z,10.33
2018-09-18T20:40:35.563Z,10.07
2018-09-18T20:43:05.377Z,11.77
2018-09-18T20:45:34.572Z,8.23
2018-09-18T20:48:03.727Z,6.67
2018-09-18T20:50:32.806Z,6.40
2018-09-18T20:53:02.489Z,7.60
2018-09-18T20:55:31.927Z,9.57
